createdAt,value
2024-01-05T00:00:15.513Z,4.43
2024-01-05T00:02:42.603Z,4.03
2024-01-05T00:05:10.149Z,3.43
2024-01-05T00:07:37.313Z,2.90
2024-01-05T00:10:04.944Z,3.07
2024-01-05T00:12:32.287Z,2.83
2024-01-05T00:14:59.569Z,2.63
2024-01-05T00:17:26.646Z,2.73
2024-01-05T00:19:54.401Z,3.10
2024-01-05T00:22:24.682Z,4.03
2024-01-05T00:24:53.358Z,3.40
2024-01-05T00:27:20.559Z,4.10
2024-01-05T00:29:49.249Z,4.30
2024-01-05T00:32:18.675Z,3.07
2024-01-05T00:34:46.533Z,6.23
2024-01-05T00:37:13.743Z,3.60
2024-01-05T00:39:41.411Z,2.60
2024-01-05T00:42:08.690Z,3.67
2024-01-05T00:44:35.848Z,4.70
2024-01-05T00:47:03.013Z,5.60
2024-01-05T00:49:29.930Z,5.27
2024-01-05T00:51:56.981Z,3.37
2024-01-05T00:54:23.915Z,4.77
2024-01-05T00:56:52.681Z,3.87
2024-01-05T00:59:21.536Z,3.80
2024-01-05T01:01:48.610Z,3.10
2024-01-05T01:04:16.110Z,3.70
2024-01-05T01:06:43.296Z,9.20
2024-01-05T01:09:10.524Z,5.37
2024-01-05T01:11:37.423Z,7.47
2024-01-05T01:14:04.281Z,6.77
2024-01-05T01:16:32.563Z,6.07
2024-01-05T01:19:00.784Z,4.37
2024-01-05T01:21:27.981Z,6.33
2024-01-05T01:23:54.925Z,3.37
2024-01-05T01:26:21.887Z,2.83
2024-01-05T01:28:48.780Z,2.33
2024-01-05T01:31:15.898Z,3.10
2024-01-05T01:33:44.091Z,4.20
2024-01-05T01:36:11.237Z,3.07
2024-01-05T01:38:40.807Z,1.87
2024-01-05T01:41:07.752Z,2.03
2024-01-05T01:43:34.690Z,3.20
2024-01-05T01:46:02.273Z,1.90
2024-01-05T01:48:31.193Z,2.60
2024-01-05T01:50:59.691Z,1.93
2024-01-05T01:53:28.408Z,2.23
2024-01-05T01:55:56.194Z,2.57
2024-01-05T01:58:24.101Z,3.00
2024-01-05T02:00:52.059Z,2.83
2024-01-05T02:03:19.347Z,3.37
2024-01-05T02:05:48.987Z,2.33
2024-01-05T02:08:16.658Z,3.27
2024-01-05T02:10:43.818Z,3.50
2024-01-05T02:13:11.197Z,2.43
2024-01-05T02:15:38.157Z,1.80
2024-01-05T02:18:15.958Z,3.20
2024-01-05T02:20:48.249Z,2.00
2024-01-05T02:23:24.067Z,2.57
2024-01-05T02:25:51.300Z,4.30
2024-01-05T02:28:20.041Z,2.30
2024-01-05T02:30:47.477Z,2.47
2024-01-05T02:33:14.667Z,2.60
2024-01-05T02:35:42.181Z,2.47
2024-01-05T02:38:09.081Z,3.50
2024-01-05T02:40:36.063Z,3.47
2024-01-05T02:43:02.996Z,2.40
2024-01-05T02:45:31.198Z,2.33
2024-01-05T02:47:58.231Z,2.13
2024-01-05T02:50:25.306Z,2.33
2024-01-05T02:52:52.182Z,3.43
2024-01-05T02:55:19.053Z,2.50
2024-01-05T02:57:48.870Z,2.07
2024-01-05T03:00:16.235Z,2.40
2024-01-05T03:02:43.130Z,3.43
2024-01-05T03:05:10.197Z,2.37
2024-01-05T03:07:37.097Z,4.10
2024-01-05T03:10:04.270Z,2.90
2024-01-05T03:12:31.270Z,3.40
2024-01-05T03:15:00.655Z,2.67
2024-01-05T03:17:27.670Z,2.13
2024-01-05T03:19:54.681Z,1.53
2024-01-05T03:22:21.723Z,4.10
2024-01-05T03:24:48.657Z,4.83
2024-01-05T03:27:16.281Z,2.03
2024-01-05T03:29:43.423Z,2.40
2024-01-05T03:32:10.479Z,2.50
2024-01-05T03:34:38.939Z,2.50
2024-01-05T03:37:06.057Z,2.33
2024-01-05T03:39:33.219Z,2.77
2024-01-05T03:42:00.336Z,2.23
2024-01-05T03:44:27.590Z,3.10
2024-01-05T03:46:54.658Z,3.23
2024-01-05T03:49:21.800Z,2.80
2024-01-05T03:51:48.926Z,2.70
2024-01-05T03:54:16.083Z,2.90
2024-01-05T03:56:44.361Z,4.67
2024-01-05T03:59:11.613Z,5.77
2024-01-05T04:01:51.171Z,6.03
2024-01-05T04:04:18.836Z,8.03
2024-01-05T04:06:47.094Z,9.97
2024-01-05T04:09:14.739Z,11.57
2024-01-05T04:11:41.829Z,8.00
2024-01-05T04:14:09.758Z,6.60
2024-01-05T04:16:36.967Z,15.20
2024-01-05T04:19:04.228Z,15.40
2024-01-05T04:21:32.259Z,5.93
2024-01-05T04:23:59.882Z,4.17
2024-01-05T04:26:27.576Z,4.10
2024-01-05T04:28:54.989Z,9.27
2024-01-05T04:31:22.435Z,18.07
2024-01-05T04:33:50.166Z,7.77
2024-01-05T04:36:19.152Z,6.70
2024-01-05T04:38:46.330Z,7.73
2024-01-05T04:41:15.046Z,6.00
2024-01-05T04:43:43.348Z,7.17
2024-01-05T04:46:10.855Z,12.80
2024-01-05T04:48:38.047Z,10.23
2024-01-05T04:51:05.302Z,6.47
2024-01-05T04:53:32.311Z,7.10
2024-01-05T04:55:59.185Z,7.50
2024-01-05T04:58:26.374Z,8.10
2024-01-05T05:00:55.210Z,9.23
2024-01-05T05:03:22.566Z,6.47
2024-01-05T05:05:49.724Z,4.20
2024-01-05T05:08:16.732Z,3.97
2024-01-05T05:10:44.088Z,5.50
2024-01-05T05:13:11.210Z,12.23
2024-01-05T05:15:39.639Z,6.60
2024-01-05T05:18:07.824Z,7.27
2024-01-05T05:20:35.143Z,4.47
2024-01-05T05:23:02.097Z,4.93
2024-01-05T05:25:29.037Z,7.37
2024-01-05T05:27:55.949Z,8.20
2024-01-05T05:30:23.294Z,9.47
2024-01-05T05:32:50.611Z,10.83
2024-01-05T05:35:17.523Z,7.37
2024-01-05T05:37:44.422Z,8.50
2024-01-05T05:40:13.539Z,7.23
2024-01-05T05:42:40.860Z,14.80
2024-01-05T05:45:08.454Z,9.40
2024-01-05T05:47:35.711Z,12.07
2024-01-05T05:50:07.244Z,10.97
2024-01-05T05:52:36.304Z,8.90
2024-01-05T05:55:03.460Z,9.73
2024-01-05T05:57:30.875Z,9.23
2024-01-05T05:59:58.006Z,7.97
2024-01-05T06:02:24.968Z,7.10
2024-01-05T06:04:52.156Z,5.30
2024-01-05T06:07:19.075Z,8.07
2024-01-05T06:09:45.966Z,8.93
2024-01-05T06:12:12.951Z,10.00
2024-01-05T06:14:39.844Z,13.67
2024-01-05T06:17:06.772Z,10.70
2024-01-05T06:19:33.927Z,11.07
2024-01-05T06:22:01.516Z,9.10
2024-01-05T06:24:30.329Z,12.00
2024-01-05T06:26:57.899Z,14.27
2024-01-05T06:29:24.998Z,24.50
2024-01-05T06:31:51.997Z,17.73
2024-01-05T06:34:20.071Z,13.17
2024-01-05T06:36:47.301Z,18.73
2024-01-05T06:39:14.176Z,57.43
2024-01-05T06:41:41.642Z,57.40
2024-01-05T06:44:08.926Z,51.90
2024-01-05T06:46:35.812Z,50.63
2024-01-05T06:49:03.144Z,51.63
2024-01-05T06:51:31.788Z,35.17
2024-01-05T06:53:59.357Z,32.10
2024-01-05T06:56:29.413Z,39.07
2024-01-05T06:58:57.066Z,37.53
2024-01-05T07:01:24.540Z,43.97
2024-01-05T07:03:52.064Z,47.47
2024-01-05T07:06:19.218Z,45.70
2024-01-05T07:08:46.161Z,50.83
2024-01-05T07:11:23.151Z,42.87
2024-01-05T07:13:51.202Z,45.90
2024-01-05T07:16:22.649Z,31.83
2024-01-05T07:18:50.502Z,32.30
2024-01-05T07:21:18.536Z,21.37
2024-01-05T07:23:45.655Z,22.23
2024-01-05T07:26:14.131Z,17.70
2024-01-05T07:28:41.526Z,13.43
2024-01-05T07:31:11.282Z,4.77
2024-01-05T07:33:41.205Z,6.87
2024-01-05T07:36:08.692Z,6.60
2024-01-05T07:38:36.505Z,7.80
2024-01-05T07:41:04.565Z,7.57
2024-01-05T07:43:32.077Z,6.83
2024-01-05T07:45:59.334Z,11.20
2024-01-05T07:48:26.605Z,8.03
2024-01-05T07:50:55.464Z,8.93
2024-01-05T07:53:23.098Z,7.23
2024-01-05T07:55:50.002Z,11.47
2024-01-05T07:58:17.447Z,11.47
2024-01-05T08:00:44.519Z,8.93
2024-01-05T08:03:12.650Z,21.40
2024-01-05T08:05:44.995Z,29.80
2024-01-05T08:08:16.647Z,22.10
2024-01-05T08:10:43.580Z,19.33
2024-01-05T08:13:10.849Z,10.53
2024-01-05T08:15:38.270Z,6.93
2024-01-05T08:18:06.174Z,8.97
2024-01-05T08:20:40.665Z,9.00
2024-01-05T08:23:10.546Z,10.80
2024-01-05T08:25:37.600Z,9.13
2024-01-05T08:28:05.196Z,7.60
2024-01-05T08:30:32.872Z,9.87
2024-01-05T08:33:00.484Z,11.27
2024-01-05T08:35:27.942Z,15.63
2024-01-05T08:37:55.509Z,16.30
2024-01-05T08:40:27.842Z,10.13
2024-01-05T08:42:59.197Z,10.00
2024-01-05T08:45:28.793Z,8.10
2024-01-05T08:47:56.278Z,9.47
2024-01-05T08:50:23.796Z,7.43
2024-01-05T08:52:52.207Z,7.67
2024-01-05T08:55:19.682Z,6.83
2024-01-05T08:57:48.980Z,7.80
2024-01-05T09:00:16.693Z,6.17
2024-01-05T09:02:44.424Z,7.27
2024-01-05T09:05:11.962Z,6.23
2024-01-05T09:07:40.583Z,7.90
2024-01-05T09:10:11.312Z,8.90
2024-01-05T09:12:39.768Z,9.87
2024-01-05T09:15:08.839Z,7.20
2024-01-05T09:17:36.354Z,9.47
2024-01-05T09:20:08.204Z,8.73
2024-01-05T09:22:36.128Z,7.93
2024-01-05T09:25:07.452Z,7.67
2024-01-05T09:27:34.829Z,8.03
2024-01-05T09:30:02.340Z,11.90
2024-01-05T09:32:31.969Z,11.47
2024-01-05T09:34:59.491Z,13.30
2024-01-05T09:37:26.899Z,57.17
2024-01-05T09:39:54.283Z,18.67
2024-01-05T09:42:21.772Z,18.50
2024-01-05T09:44:49.684Z,25.13
2024-01-05T09:47:18.867Z,14.97
2024-01-05T09:49:50.509Z,22.37
2024-01-05T09:52:21.486Z,82.13
2024-01-05T09:54:48.916Z,131.23
2024-01-05T09:57:21.545Z,34.23
2024-01-05T09:59:49.295Z,12.67
2024-01-05T10:02:27.701Z,9.17
2024-01-05T10:04:56.198Z,20.23
2024-01-05T10:07:23.198Z,217.93
2024-01-05T10:09:54.894Z,86.57
2024-01-05T10:12:22.298Z,24.03
2024-01-05T10:14:50.718Z,13.27
2024-01-05T10:17:18.531Z,14.27
2024-01-05T10:19:46.088Z,10.10
2024-01-05T10:22:15.780Z,8.67
2024-01-05T10:24:44.056Z,9.83
2024-01-05T10:27:15.288Z,9.23
2024-01-05T10:29:47.717Z,11.30
2024-01-05T10:32:20.181Z,13.03
2024-01-05T10:34:49.110Z,7.20
2024-01-05T10:37:17.828Z,13.83
2024-01-05T10:39:56.539Z,22.60
2024-01-05T10:42:29.211Z,8.47
2024-01-05T10:45:00.372Z,5.83
2024-01-05T10:47:32.431Z,15.13
2024-01-05T10:50:00.070Z,9.13
2024-01-05T10:52:29.863Z,16.57
2024-01-05T10:54:57.494Z,8.57
2024-01-05T10:57:28.053Z,5.07
2024-01-05T10:59:56.003Z,4.07
2024-01-05T11:02:40.713Z,6.30
2024-01-05T11:05:09.592Z,8.00
2024-01-05T11:07:38.680Z,6.90
2024-01-05T11:10:33.414Z,61.50
2024-01-05T11:13:33.965Z,111.70
2024-01-05T11:16:25.540Z,33.20
2024-01-05T11:19:20.746Z,71.87
2024-01-05T11:22:01.274Z,18.07
2024-01-05T11:24:29.315Z,113.53
2024-01-05T11:26:59.117Z,14.97
2024-01-05T11:29:47.634Z,5.00
2024-01-05T11:32:47.734Z,7.77
2024-01-05T11:35:19.042Z,11.43
2024-01-05T11:37:46.992Z,7.17
2024-01-05T11:40:26.485Z,35.43
2024-01-05T11:42:53.956Z,6.17
2024-01-05T11:45:45.608Z,10.13
2024-01-05T11:48:49.064Z,16.60
2024-01-05T11:51:16.881Z,5.87
2024-01-05T11:53:45.943Z,3.50
2024-01-05T11:56:17.409Z,4.77
2024-01-05T11:58:45.542Z,86.93
2024-01-05T12:01:15.061Z,62.80
2024-01-05T12:03:44.911Z,8.43
2024-01-05T12:06:14.416Z,5.90
2024-01-05T12:08:42.477Z,2.77
2024-01-05T12:11:12.248Z,13.93
2024-01-05T12:13:40.260Z,34.23
2024-01-05T12:16:12.063Z,22.57
2024-01-05T12:18:49.883Z,18.03
2024-01-05T12:21:21.066Z,22.53
2024-01-05T12:23:57.492Z,5.67
2024-01-05T12:26:25.246Z,12.23
2024-01-05T12:28:53.110Z,15.53
2024-01-05T12:31:22.016Z,9.97
2024-01-05T12:33:49.596Z,7.57
2024-01-05T12:36:33.176Z,3.73
2024-01-05T12:39:17.319Z,12.57
2024-01-05T12:41:47.532Z,7.27
2024-01-05T12:44:17.615Z,6.93
2024-01-05T12:46:48.178Z,11.33
2024-01-05T12:49:26.419Z,9.50
2024-01-05T12:51:54.459Z,10.90
2024-01-05T12:54:22.749Z,18.13
2024-01-05T12:56:52.477Z,12.63
2024-01-05T12:59:24.166Z,9.30
2024-01-05T13:02:01.808Z,10.57
2024-01-05T13:04:39.653Z,7.13
2024-01-05T13:07:12.355Z,10.48
2024-01-05T13:09:45.160Z,4.05
2024-01-05T13:12:12.383Z,7.13
2024-01-05T13:14:42.661Z,17.25
2024-01-05T13:17:09.758Z,7.13
2024-01-05T13:19:38.235Z,2.30
2024-01-05T13:22:10.502Z,5.75
2024-01-05T13:24:37.718Z,9.70
2024-01-05T13:27:06.686Z,9.05
2024-01-05T13:29:33.837Z,5.32
2024-01-05T13:32:00.784Z,18.02
2024-01-05T13:34:30.869Z,9.73
2024-01-05T13:37:01.634Z,11.23
2024-01-05T13:39:28.691Z,9.13
2024-01-05T13:41:56.021Z,9.73
2024-01-05T13:44:25.253Z,12.83
2024-01-05T13:46:52.267Z,6.93
2024-01-05T13:49:24.803Z,10.47
2024-01-05T13:51:52.750Z,12.00
2024-01-05T13:54:23.164Z,7.77
2024-01-05T13:56:50.316Z,16.20
2024-01-05T13:59:17.227Z,9.97
2024-01-05T14:01:44.629Z,11.10
2024-01-05T14:04:12.729Z,17.30
2024-01-05T14:06:40.164Z,35.47
2024-01-05T14:09:07.241Z,56.37
2024-01-05T14:11:34.220Z,145.50
2024-01-05T14:14:01.321Z,88.60
2024-01-05T14:16:28.306Z,66.73
2024-01-05T14:18:55.765Z,58.20
2024-01-05T14:21:29.724Z,56.43
2024-01-05T14:23:57.642Z,62.73
2024-01-05T14:26:27.341Z,48.63
2024-01-05T14:28:56.437Z,61.20
2024-01-05T14:31:34.939Z,39.03
2024-01-05T14:34:04.830Z,32.47
2024-01-05T14:36:31.832Z,29.43
2024-01-05T14:38:59.990Z,42.33
2024-01-05T14:41:29.589Z,43.13
2024-01-05T14:43:57.454Z,57.37
2024-01-05T14:46:25.928Z,61.77
2024-01-05T14:48:54.491Z,62.67
2024-01-05T14:51:30.513Z,52.20
2024-01-05T14:54:01.111Z,72.20
2024-01-05T14:56:31.162Z,66.73
2024-01-05T14:59:02.844Z,54.10
2024-01-05T15:01:31.612Z,58.13
2024-01-05T15:03:59.258Z,58.63
2024-01-05T15:06:38.156Z,70.93
2024-01-05T15:09:08.983Z,56.57
2024-01-05T15:11:37.183Z,50.93
2024-01-05T15:14:11.948Z,55.17
2024-01-05T15:16:58.116Z,98.10
2024-01-05T15:19:29.973Z,108.30
2024-01-05T15:22:00.693Z,123.33
2024-01-05T15:24:31.877Z,72.27
2024-01-05T15:27:04.372Z,46.87
2024-01-05T15:29:42.399Z,35.70
2024-01-05T15:32:17.750Z,28.47
2024-01-05T15:34:45.208Z,30.17
2024-01-05T15:37:17.312Z,29.63
2024-01-05T15:39:44.950Z,30.13
2024-01-05T15:42:16.353Z,29.50
2024-01-05T15:44:45.931Z,33.03
2024-01-05T15:47:13.412Z,23.70
2024-01-05T15:49:42.170Z,20.60
2024-01-05T15:52:09.738Z,23.97
2024-01-05T15:54:37.008Z,22.03
2024-01-05T15:57:05.201Z,26.40
2024-01-05T15:59:36.488Z,27.33
2024-01-05T16:02:04.700Z,33.90
2024-01-05T16:04:33.801Z,37.50
2024-01-05T16:07:05.290Z,43.53
2024-01-05T16:09:32.483Z,66.53
2024-01-05T16:12:00.700Z,83.13
2024-01-05T16:14:34.994Z,98.43
2024-01-05T16:17:03.306Z,110.20
2024-01-05T16:19:31.593Z,117.20
2024-01-05T16:22:01.640Z,157.07
2024-01-05T16:24:29.094Z,171.63
2024-01-05T16:26:56.857Z,147.07
2024-01-05T16:29:25.228Z,129.53
2024-01-05T16:31:53.267Z,120.70
2024-01-05T16:34:21.714Z,116.47
2024-01-05T16:36:49.124Z,139.07
2024-01-05T16:39:18.811Z,286.03
2024-01-05T16:41:46.766Z,251.50
2024-01-05T16:44:13.731Z,222.70
2024-01-05T16:46:41.207Z,224.77
2024-01-05T16:49:09.147Z,211.30
2024-01-05T16:51:36.343Z,224.60
2024-01-05T16:54:04.553Z,212.40
2024-01-05T16:56:41.055Z,188.87
2024-01-05T16:59:12.364Z,196.67
2024-01-05T17:01:47.151Z,157.20
2024-01-05T17:04:14.455Z,207.23
2024-01-05T17:06:43.713Z,155.07
2024-01-05T17:09:10.944Z,157.70
2024-01-05T17:11:37.951Z,157.23
2024-01-05T17:14:04.997Z,163.13
2024-01-05T17:16:32.299Z,155.77
2024-01-05T17:19:00.736Z,161.73
2024-01-05T17:21:33.132Z,153.33
2024-01-05T17:24:01.440Z,141.53
2024-01-05T17:26:31.598Z,127.30
2024-01-05T17:29:05.234Z,126.17
2024-01-05T17:31:33.026Z,93.43
2024-01-05T17:34:00.483Z,70.03
2024-01-05T17:36:32.106Z,63.30
2024-01-05T17:38:59.426Z,52.60
2024-01-05T17:41:28.588Z,64.30
2024-01-05T17:43:55.602Z,60.17
2024-01-05T17:46:22.517Z,41.47
2024-01-05T17:48:50.025Z,37.63
2024-01-05T17:51:17.273Z,39.43
2024-01-05T17:53:49.488Z,38.70
2024-01-05T17:56:27.779Z,44.63
2024-01-05T17:58:57.463Z,43.53
2024-01-05T18:01:27.025Z,43.13
2024-01-05T18:03:56.459Z,46.50
2024-01-05T18:06:23.877Z,56.00
2024-01-05T18:08:53.127Z,70.07
2024-01-05T18:11:23.731Z,76.30
2024-01-05T18:13:52.347Z,67.40
2024-01-05T18:16:32.582Z,74.03
2024-01-05T18:18:59.755Z,67.87
2024-01-05T18:21:29.904Z,111.33
2024-01-05T18:24:18.988Z,148.53
2024-01-05T18:26:49.124Z,160.40
2024-01-05T18:29:24.452Z,195.87
2024-01-05T18:31:55.461Z,129.97
2024-01-05T18:34:24.222Z,88.70
2024-01-05T18:36:51.649Z,86.27
2024-01-05T18:39:19.095Z,93.13
2024-01-05T18:41:48.462Z,111.73
2024-01-05T18:44:19.692Z,90.43
2024-01-05T18:46:51.565Z,100.67
2024-01-05T18:49:20.298Z,73.10
2024-01-05T18:51:48.663Z,64.00
2024-01-05T18:54:20.979Z,65.37
2024-01-05T18:56:49.654Z,64.17
2024-01-05T18:59:19.229Z,59.63
2024-01-05T19:02:02.053Z,68.27
2024-01-05T19:04:31.933Z,62.53
2024-01-05T19:07:02.528Z,58.83
2024-01-05T19:09:30.107Z,52.53
2024-01-05T19:12:02.375Z,45.07
2024-01-05T19:14:30.137Z,50.30
2024-01-05T19:16:59.387Z,75.50
2024-01-05T19:19:34.415Z,58.63
2024-01-05T19:22:02.831Z,67.50
2024-01-05T19:24:33.459Z,65.07
2024-01-05T19:27:03.449Z,71.00
2024-01-05T19:29:33.600Z,70.73
2024-01-05T19:32:01.978Z,181.00
2024-01-05T19:34:31.102Z,436.43
2024-01-05T19:36:59.510Z,141.13
2024-01-05T19:39:34.846Z,65.07
2024-01-05T19:42:02.542Z,65.80
2024-01-05T19:44:30.099Z,60.57
2024-01-05T19:46:58.720Z,233.93
2024-01-05T19:49:31.700Z,198.90
2024-01-05T19:52:01.725Z,116.07
2024-01-05T19:54:34.581Z,102.03
2024-01-05T19:57:04.205Z,89.33
2024-01-05T19:59:33.678Z,67.20
2024-01-05T20:02:09.011Z,51.43
2024-01-05T20:04:40.274Z,42.13
2024-01-05T20:07:12.380Z,50.87
2024-01-05T20:09:47.104Z,63.23
2024-01-05T20:12:18.666Z,66.93
2024-01-05T20:14:49.315Z,63.30
2024-01-05T20:17:18.288Z,62.93
2024-01-05T20:19:47.266Z,59.90
2024-01-05T20:22:18.185Z,98.50
2024-01-05T20:24:49.650Z,81.40
2024-01-05T20:27:19.156Z,94.67
2024-01-05T20:29:49.486Z,89.13
2024-01-05T20:32:22.290Z,87.97
2024-01-05T20:35:02.088Z,81.23
2024-01-05T20:37:31.669Z,69.83
2024-01-05T20:40:00.014Z,71.47
2024-01-05T20:42:28.538Z,72.47
2024-01-05T20:45:01.734Z,71.13
2024-01-05T20:47:39.794Z,77.67
2024-01-05T20:50:19.643Z,89.53
2024-01-05T20:52:48.986Z,78.30
2024-01-05T20:55:16.377Z,87.10
2024-01-05T20:57:46.130Z,135.63
2024-01-05T21:00:33.304Z,183.07
2024-01-05T21:03:00.813Z,130.73
2024-01-05T21:05:27.844Z,123.40
2024-01-05T21:07:55.043Z,133.30
2024-01-05T21:10:23.457Z,120.47
2024-01-05T21:12:53.425Z,99.93
2024-01-05T21:15:20.466Z,109.90
2024-01-05T21:17:47.686Z,86.83
2024-01-05T21:20:15.537Z,52.47
2024-01-05T21:22:43.153Z,52.37
2024-01-05T21:25:13.924Z,47.90
2024-01-05T21:27:43.187Z,47.97
2024-01-05T21:30:10.875Z,40.77
2024-01-05T21:32:39.590Z,42.53
2024-01-05T21:35:07.331Z,40.43
2024-01-05T21:37:37.652Z,39.20
2024-01-05T21:40:07.229Z,38.97
2024-01-05T21:42:35.050Z,47.03
2024-01-05T21:45:02.988Z,61.37
2024-01-05T21:47:51.973Z,153.47
2024-01-05T21:50:19.942Z,132.40
2024-01-05T21:52:47.834Z,120.67
2024-01-05T21:55:17.579Z,115.17
2024-01-05T21:57:46.176Z,104.53
2024-01-05T22:00:14.177Z,87.50
2024-01-05T22:02:41.506Z,100.97
2024-01-05T22:05:08.983Z,128.17
2024-01-05T22:07:36.755Z,114.23
2024-01-05T22:10:05.608Z,111.70
2024-01-05T22:12:32.800Z,109.83
2024-01-05T22:15:00.034Z,89.30
2024-01-05T22:17:27.189Z,96.57
2024-01-05T22:19:55.209Z,101.17
2024-01-05T22:22:23.616Z,73.77
2024-01-05T22:24:50.880Z,67.97
2024-01-05T22:27:19.253Z,70.60
2024-01-05T22:29:46.911Z,51.73
2024-01-05T22:32:14.309Z,38.87
2024-01-05T22:34:44.162Z,42.47
2024-01-05T22:37:11.929Z,49.27
2024-01-05T22:39:39.355Z,27.07
2024-01-05T22:42:06.605Z,31.53
2024-01-05T22:44:34.511Z,28.27
2024-01-05T22:47:06.057Z,30.13
2024-01-05T22:49:33.626Z,26.90
2024-01-05T22:52:03.255Z,26.67
2024-01-05T22:54:31.205Z,21.30
2024-01-05T22:56:58.443Z,22.73
2024-01-05T22:59:25.524Z,17.67
2024-01-05T23:01:56.499Z,22.00
2024-01-05T23:04:25.666Z,16.83
2024-01-05T23:06:54.329Z,20.73
2024-01-05T23:09:21.856Z,16.83
2024-01-05T23:11:53.877Z,16.70
2024-01-05T23:14:21.786Z,16.93
2024-01-05T23:16:53.145Z,20.97
2024-01-05T23:19:21.385Z,27.03
2024-01-05T23:21:48.651Z,34.10
2024-01-05T23:24:16.116Z,31.87
2024-01-05T23:26:44.831Z,42.07
2024-01-05T23:29:12.400Z,43.70
2024-01-05T23:31:43.305Z,36.17
2024-01-05T23:34:16.356Z,27.07
2024-01-05T23:36:47.374Z,26.97
2024-01-05T23:39:15.074Z,23.10
2024-01-05T23:41:42.664Z,16.57
2024-01-05T23:44:10.160Z,14.10
2024-01-05T23:46:37.392Z,13.03
2024-01-05T23:49:04.590Z,15.57
2024-01-05T23:51:32.431Z,12.50
2024-01-05T23:53:59.699Z,12.27
2024-01-05T23:56:26.948Z,12.87
2024-01-05T23:58:54.872Z,21.53
